createdAt,value
2017-12-22T00:00:39.956Z,1007.45
2017-12-22T00:02:35.819Z,1007.40
2017-12-22T00:03:35.783Z,1007.42
2017-12-22T00:05:31.660Z,1007.44
2017-12-22T00:06:31.622Z,1007.44
2017-12-22T00:08:27.488Z,1007.42
2017-12-22T00:09:27.420Z,1007.41
2017-12-22T00:11:20.796Z,1007.43
2017-12-22T00:12:20.752Z,1007.45
2017-12-22T00:14:14.107Z,1007.46
2017-12-22T00:15:14.066Z,1007.41
2017-12-22T00:17:09.934Z,1007.44
2017-12-22T00:18:09.871Z,1007.43
2017-12-22T00:20:03.243Z,1007.40
2017-12-22T00:21:03.201Z,1007.44
2017-12-22T00:22:56.579Z,1007.41
2017-12-22T00:23:56.559Z,1007.40
2017-12-22T00:25:49.898Z,1007.40
2017-12-22T00:26:49.855Z,1007.42
2017-12-22T00:28:45.712Z,1007.46
2017-12-22T00:29:45.675Z,1007.37
2017-12-22T00:31:39.033Z,1007.43
2017-12-22T00:32:38.989Z,1007.43
2017-12-22T00:34:33.160Z,1007.43
2017-12-22T00:35:33.121Z,1007.44
2017-12-22T00:37:26.478Z,1007.45
2017-12-22T00:38:26.435Z,1007.43
2017-12-22T00:40:20.665Z,1007.42
2017-12-22T00:41:20.643Z,1007.41
2017-12-22T00:43:14.879Z,1007.40
2017-12-22T00:44:14.832Z,1007.42
2017-12-22T00:46:08.189Z,1007.38
2017-12-22T00:47:08.150Z,1007.41
2017-12-22T00:49:01.508Z,1007.42
2017-12-22T00:50:01.462Z,1007.41
2017-12-22T00:51:54.822Z,1007.44
2017-12-22T00:52:54.787Z,1007.42
2017-12-22T00:54:50.646Z,1007.49
2017-12-22T00:55:50.608Z,1007.47
2017-12-22T00:57:43.999Z,1007.46
2017-12-22T00:58:43.958Z,1007.46
2017-12-22T01:00:37.311Z,1007.40
2017-12-22T01:01:37.272Z,1007.41
2017-12-22T01:03:30.691Z,1007.41
2017-12-22T01:04:30.642Z,1007.40
2017-12-22T01:06:24.959Z,1007.33
2017-12-22T01:07:24.912Z,1007.39
2017-12-22T01:09:18.279Z,1007.43
2017-12-22T01:10:18.238Z,1007.42
2017-12-22T01:12:11.597Z,1007.46
2017-12-22T01:13:11.560Z,1007.50
2017-12-22T01:15:04.907Z,1007.52
2017-12-22T01:16:04.866Z,1007.54
2017-12-22T01:18:00.734Z,1007.56
2017-12-22T01:19:00.696Z,1007.56
2017-12-22T01:20:54.093Z,1007.58
2017-12-22T01:21:54.046Z,1007.55
2017-12-22T01:23:47.450Z,1007.59
2017-12-22T01:24:47.409Z,1007.60
2017-12-22T01:26:40.800Z,1007.63
2017-12-22T01:27:40.746Z,1007.67
2017-12-22T01:29:34.219Z,1007.66
2017-12-22T01:30:34.070Z,1007.66
2017-12-22T01:32:27.436Z,1007.62
2017-12-22T01:33:27.406Z,1007.62
2017-12-22T01:35:20.745Z,1007.63
2017-12-22T01:36:20.720Z,1007.63
2017-12-22T01:38:16.579Z,1007.60
2017-12-22T01:39:16.541Z,1007.67
2017-12-22T01:41:09.898Z,1007.65
2017-12-22T01:42:09.857Z,1007.64
2017-12-22T01:44:03.214Z,1007.68
2017-12-22T01:45:03.176Z,1007.67
2017-12-22T01:46:56.546Z,1007.70
2017-12-22T01:47:56.494Z,1007.74
2017-12-22T01:49:52.358Z,1007.69
2017-12-22T01:50:52.320Z,1007.70
2017-12-22T01:52:48.189Z,1007.69
2017-12-22T01:53:48.141Z,1007.68
2017-12-22T01:55:41.496Z,1007.64
2017-12-22T01:56:41.459Z,1007.65
2017-12-22T01:58:37.322Z,1007.63
2017-12-22T01:59:37.283Z,1007.62
2017-12-22T02:01:30.643Z,1007.60
2017-12-22T02:02:30.600Z,1007.59
2017-12-22T02:04:23.977Z,1007.58
2017-12-22T02:05:23.919Z,1007.62
2017-12-22T02:07:17.278Z,1007.60
2017-12-22T02:08:17.253Z,1007.60
2017-12-22T02:10:10.603Z,1007.59
2017-12-22T02:11:10.565Z,1007.61
2017-12-22T02:13:06.435Z,1007.63
2017-12-22T02:14:06.368Z,1007.64
2017-12-22T02:15:59.747Z,1007.64
2017-12-22T02:16:59.702Z,1007.58
2017-12-22T02:18:53.055Z,1007.59
2017-12-22T02:19:53.016Z,1007.58
2017-12-22T02:21:46.397Z,1007.56
2017-12-22T02:22:46.356Z,1007.59
2017-12-22T02:24:40.531Z,1007.53
2017-12-22T02:25:40.480Z,1007.54
2017-12-22T02:27:33.862Z,1007.55
2017-12-22T02:28:33.843Z,1007.57
2017-12-22T02:30:29.717Z,1007.57
2017-12-22T02:31:29.674Z,1007.57
2017-12-22T02:33:23.192Z,1007.52
2017-12-22T02:34:22.993Z,1007.50
2017-12-22T02:36:18.885Z,1007.49
2017-12-22T02:37:18.810Z,1007.47
2017-12-22T02:39:12.170Z,1007.47
2017-12-22T02:40:12.149Z,1007.44
2017-12-22T02:42:07.994Z,1007.41
2017-12-22T02:43:07.973Z,1007.43
2017-12-22T02:45:01.334Z,1007.44
2017-12-22T02:46:01.274Z,1007.43
2017-12-22T02:47:54.632Z,1007.38
2017-12-22T02:48:54.594Z,1007.37
2017-12-22T02:50:50.454Z,1007.33
2017-12-22T02:51:50.407Z,1007.33
2017-12-22T02:53:43.778Z,1007.30
2017-12-22T02:54:43.740Z,1007.27
2017-12-22T02:56:39.605Z,1007.25
2017-12-22T02:57:39.560Z,1007.20
2017-12-22T02:59:32.957Z,1007.20
2017-12-22T03:00:32.912Z,1007.17
2017-12-22T03:02:26.245Z,1007.08
2017-12-22T03:03:26.204Z,1007.12
2017-12-22T03:05:19.561Z,1007.16
2017-12-22T03:06:19.524Z,1007.16
2017-12-22T03:08:12.880Z,1007.17
2017-12-22T03:09:12.842Z,1007.20
2017-12-22T03:11:06.237Z,1007.19
2017-12-22T03:12:06.169Z,1007.18
2017-12-22T03:14:02.013Z,1007.09
2017-12-22T03:15:01.976Z,1007.10
2017-12-22T03:16:55.377Z,1007.13
2017-12-22T03:17:55.336Z,1007.09
2017-12-22T03:19:52.070Z,1007.12
2017-12-22T03:20:52.049Z,1007.12
2017-12-22T03:22:45.410Z,1007.09
2017-12-22T03:23:45.368Z,1007.14
2017-12-22T03:25:41.232Z,1007.10
2017-12-22T03:26:41.195Z,1007.06
2017-12-22T03:28:37.072Z,1007.07
2017-12-22T03:29:37.021Z,1007.07
2017-12-22T03:31:30.389Z,1007.08
2017-12-22T03:32:30.341Z,1007.01
2017-12-22T03:34:23.700Z,1006.98
2017-12-22T03:35:23.660Z,1006.99
2017-12-22T03:37:19.516Z,1007.02
2017-12-22T03:38:19.469Z,1006.95
2017-12-22T03:40:12.838Z,1006.88
2017-12-22T03:41:12.789Z,1006.91
2017-12-22T03:43:06.157Z,1006.89
2017-12-22T03:44:06.120Z,1006.87
2017-12-22T03:45:59.487Z,1006.79
2017-12-22T03:46:59.437Z,1006.81
2017-12-22T03:48:53.157Z,1006.83
2017-12-22T03:49:53.099Z,1006.84
2017-12-22T03:51:46.486Z,1006.78
2017-12-22T03:52:46.445Z,1006.79
2017-12-22T03:54:39.800Z,1006.75
2017-12-22T03:55:39.758Z,1006.77
2017-12-22T03:57:33.125Z,1006.79
2017-12-22T03:58:33.084Z,1006.78
2017-12-22T04:00:28.973Z,1006.74
2017-12-22T04:01:28.904Z,1006.77
2017-12-22T04:03:22.264Z,1006.77
2017-12-22T04:04:22.218Z,1006.72
2017-12-22T04:06:15.593Z,1006.72
2017-12-22T04:07:15.536Z,1006.76
2017-12-22T04:09:08.894Z,1006.74
2017-12-22T04:10:08.890Z,1006.71
2017-12-22T04:12:02.223Z,1006.68
2017-12-22T04:13:02.172Z,1006.66
2017-12-22T04:14:55.539Z,1006.65
2017-12-22T04:15:55.492Z,1006.64
2017-12-22T04:17:48.855Z,1006.64
2017-12-22T04:18:48.812Z,1006.60
2017-12-22T04:20:44.690Z,1006.65
2017-12-22T04:21:44.654Z,1006.67
2017-12-22T04:23:40.509Z,1006.67
2017-12-22T04:24:40.474Z,1006.64
2017-12-22T04:26:34.643Z,1006.63
2017-12-22T04:27:34.597Z,1006.66
2017-12-22T04:29:27.958Z,1006.61
2017-12-22T04:30:27.924Z,1006.59
2017-12-22T04:32:23.792Z,1006.56
2017-12-22T04:33:23.749Z,1006.58
2017-12-22T04:35:17.154Z,1006.60
2017-12-22T04:36:17.063Z,1006.62
2017-12-22T04:38:12.929Z,1006.66
2017-12-22T04:39:12.885Z,1006.72
2017-12-22T04:41:06.246Z,1006.76
2017-12-22T04:42:06.218Z,1006.79
2017-12-22T04:43:59.610Z,1006.77
2017-12-22T04:44:59.565Z,1006.77
2017-12-22T04:46:55.431Z,1006.78
2017-12-22T04:47:55.392Z,1006.80
2017-12-22T04:49:48.759Z,1006.80
2017-12-22T04:50:48.720Z,1006.82
2017-12-22T04:52:42.075Z,1006.83
2017-12-22T04:53:42.034Z,1006.82
2017-12-22T04:55:37.903Z,1006.82
2017-12-22T04:56:37.856Z,1006.83
2017-12-22T04:58:31.252Z,1006.85
2017-12-22T04:59:31.174Z,1006.86
2017-12-22T05:01:24.539Z,1006.81
2017-12-22T05:02:24.496Z,1006.83
2017-12-22T05:04:17.859Z,1006.80
2017-12-22T05:05:17.820Z,1006.82
2017-12-22T05:07:12.053Z,1006.81
2017-12-22T05:08:12.013Z,1006.86
2017-12-22T05:10:07.863Z,1006.88
2017-12-22T05:11:07.820Z,1006.87
2017-12-22T05:13:02.208Z,1006.84
2017-12-22T05:14:02.011Z,1006.82
2017-12-22T05:15:57.871Z,1006.86
2017-12-22T05:16:57.827Z,1006.85
2017-12-22T05:18:51.188Z,1006.83
2017-12-22T05:19:51.154Z,1006.83
2017-12-22T05:21:44.516Z,1006.88
2017-12-22T05:22:44.465Z,1006.84
2017-12-22T05:24:38.694Z,1006.87
2017-12-22T05:25:38.644Z,1006.86
2017-12-22T05:27:34.522Z,1006.86
2017-12-22T05:28:34.470Z,1006.89
2017-12-22T05:30:27.824Z,1006.88
2017-12-22T05:31:27.790Z,1006.90
2017-12-22T05:33:21.208Z,1006.91
2017-12-22T05:34:21.152Z,1006.98
2017-12-22T05:36:14.506Z,1007.00
2017-12-22T05:37:14.462Z,1007.02
2017-12-22T05:39:10.355Z,1007.01
2017-12-22T05:40:10.276Z,1007.04
2017-12-22T05:42:03.641Z,1007.02
2017-12-22T05:43:03.602Z,1007.00
2017-12-22T05:44:59.469Z,1006.95
2017-12-22T05:45:59.416Z,1006.98
2017-12-22T05:47:52.803Z,1006.95
2017-12-22T05:48:52.764Z,1006.94
2017-12-22T05:50:46.139Z,1006.95
2017-12-22T05:51:46.104Z,1006.90
2017-12-22T05:53:41.963Z,1006.91
2017-12-22T05:54:41.920Z,1006.93
2017-12-22T05:56:35.279Z,1006.93
2017-12-22T05:57:35.247Z,1006.92
2017-12-22T05:59:31.114Z,1006.91
2017-12-22T06:00:31.065Z,1006.90
2017-12-22T06:02:24.438Z,1006.96
2017-12-22T06:03:24.391Z,1006.94
2017-12-22T06:05:18.582Z,1006.96
2017-12-22T06:06:18.545Z,1006.98
2017-12-22T06:08:11.898Z,1006.96
2017-12-22T06:09:11.861Z,1006.98
2017-12-22T06:11:05.224Z,1006.98
2017-12-22T06:12:05.181Z,1007.01
2017-12-22T06:13:58.542Z,1007.02
2017-12-22T06:14:58.501Z,1007.01
2017-12-22T06:16:51.852Z,1007.06
2017-12-22T06:17:51.813Z,1007.03
2017-12-22T06:19:45.183Z,1007.01
2017-12-22T06:20:45.131Z,1007.04
2017-12-22T06:22:38.504Z,1007.03
2017-12-22T06:23:38.468Z,1007.02
2017-12-22T06:25:31.810Z,1007.03
2017-12-22T06:26:31.769Z,1007.03
2017-12-22T06:28:25.133Z,1007.06
2017-12-22T06:29:25.082Z,1007.11
2017-12-22T06:31:19.239Z,1007.03
2017-12-22T06:32:19.210Z,1007.03
2017-12-22T06:34:12.550Z,1006.98
2017-12-22T06:35:12.511Z,1007.01
2017-12-22T06:37:05.916Z,1007.01
2017-12-22T06:38:05.877Z,1006.97
2017-12-22T06:40:01.742Z,1006.99
2017-12-22T06:41:01.714Z,1006.99
2017-12-22T06:42:55.063Z,1006.97
2017-12-22T06:43:55.018Z,1006.97
2017-12-22T06:45:48.377Z,1007.00
2017-12-22T06:46:48.340Z,1007.00
2017-12-22T06:48:41.705Z,1007.01
2017-12-22T06:49:41.653Z,1007.01
2017-12-22T06:51:35.015Z,1007.00
2017-12-22T06:52:34.970Z,1006.98
2017-12-22T06:54:28.335Z,1006.98
2017-12-22T06:55:28.294Z,1006.97
2017-12-22T06:57:21.650Z,1006.97
2017-12-22T06:58:21.605Z,1006.99
2017-12-22T07:00:15.195Z,1006.99
2017-12-22T07:01:15.158Z,1007.05
2017-12-22T07:03:08.556Z,1007.06
2017-12-22T07:04:08.543Z,1007.04
2017-12-22T07:06:04.345Z,1007.00
2017-12-22T07:07:04.298Z,1007.04
2017-12-22T07:08:57.651Z,1006.99
2017-12-22T07:09:57.612Z,1006.95
2017-12-22T07:11:53.469Z,1006.96
2017-12-22T07:12:53.438Z,1006.94
2017-12-22T07:14:46.804Z,1006.98
2017-12-22T07:15:46.758Z,1006.98
2017-12-22T07:17:39.663Z,1006.97
2017-12-22T07:18:39.626Z,1007.01
2017-12-22T07:20:32.994Z,1006.98
2017-12-22T07:21:32.958Z,1006.99
2017-12-22T07:23:26.313Z,1006.99
2017-12-22T07:24:26.282Z,1007.03
2017-12-22T07:26:19.641Z,1007.04
2017-12-22T07:27:19.600Z,1007.06
2017-12-22T07:29:12.963Z,1007.03
2017-12-22T07:30:12.931Z,1007.02
2017-12-22T07:32:06.269Z,1007.01
2017-12-22T07:33:06.230Z,1007.02
2017-12-22T07:35:02.096Z,1007.02
2017-12-22T07:36:02.047Z,1007.02
2017-12-22T07:37:55.424Z,1007.04
2017-12-22T07:38:55.378Z,1007.01
2017-12-22T07:40:48.733Z,1007.01
2017-12-22T07:41:48.689Z,1006.98
2017-12-22T07:43:44.564Z,1006.96
2017-12-22T07:44:44.525Z,1006.95
2017-12-22T07:46:37.894Z,1006.95
2017-12-22T07:47:37.845Z,1006.98
2017-12-22T07:49:33.698Z,1007.08
2017-12-22T07:50:33.658Z,1007.11
2017-12-22T07:52:27.830Z,1007.08
2017-12-22T07:53:27.783Z,1007.13
2017-12-22T07:55:21.149Z,1007.12
2017-12-22T07:56:21.109Z,1007.13
2017-12-22T07:58:17.853Z,1007.16
2017-12-22T07:59:17.826Z,1007.20
2017-12-22T08:01:11.199Z,1007.24
2017-12-22T08:02:11.128Z,1007.19
2017-12-22T08:04:07.006Z,1007.17
2017-12-22T08:05:06.968Z,1007.17
2017-12-22T08:07:00.333Z,1007.15
2017-12-22T08:08:00.302Z,1007.13
2017-12-22T08:09:53.676Z,1007.08
2017-12-22T08:10:53.627Z,1007.10
2017-12-22T08:12:46.988Z,1007.07
2017-12-22T08:13:46.934Z,1007.09
2017-12-22T08:15:40.307Z,1007.11
2017-12-22T08:16:40.276Z,1007.06
2017-12-22T08:18:36.133Z,1007.08
2017-12-22T08:19:36.084Z,1007.06
2017-12-22T08:21:29.470Z,1007.05
2017-12-22T08:22:29.410Z,1007.07
2017-12-22T08:24:22.769Z,1007.03
2017-12-22T08:25:22.752Z,1007.04
2017-12-22T08:27:18.609Z,1007.01
2017-12-22T08:28:18.561Z,1007.04
2017-12-22T08:30:11.922Z,1007.04
2017-12-22T08:31:11.877Z,1007.03
2017-12-22T08:33:05.248Z,1007.07
2017-12-22T08:34:05.195Z,1007.06
2017-12-22T08:35:59.447Z,1007.10
2017-12-22T08:36:59.403Z,1007.07
2017-12-22T08:38:52.784Z,1007.06
2017-12-22T08:39:52.751Z,1007.05
2017-12-22T08:41:48.656Z,1007.09
2017-12-22T08:42:48.615Z,1007.06
2017-12-22T08:44:44.479Z,1007.09
2017-12-22T08:45:44.456Z,1007.07
2017-12-22T08:47:37.808Z,1007.14
2017-12-22T08:48:37.779Z,1007.12
2017-12-22T08:50:31.131Z,1007.15
2017-12-22T08:51:31.088Z,1007.17
2017-12-22T08:53:24.443Z,1007.19
2017-12-22T08:54:24.406Z,1007.19
2017-12-22T08:56:17.281Z,1007.19
2017-12-22T08:57:17.225Z,1007.23
2017-12-22T08:59:10.584Z,1007.17
2017-12-22T09:00:10.534Z,1007.12
2017-12-22T09:02:06.391Z,1007.14
2017-12-22T09:03:06.350Z,1007.14
2017-12-22T09:05:00.527Z,1007.21
2017-12-22T09:06:00.473Z,1007.25
2017-12-22T09:07:53.851Z,1007.30
2017-12-22T09:08:53.834Z,1007.33
2017-12-22T09:10:47.191Z,1007.37
2017-12-22T09:11:47.156Z,1007.39
2017-12-22T09:13:40.499Z,1007.47
2017-12-22T09:14:40.460Z,1007.47
2017-12-22T09:16:33.847Z,1007.46
2017-12-22T09:17:33.768Z,1007.44
2017-12-22T09:19:29.661Z,1007.49
2017-12-22T09:20:29.616Z,1007.51
2017-12-22T09:22:22.980Z,1007.48
2017-12-22T09:23:22.937Z,1007.49
2017-12-22T09:25:18.802Z,1007.52
2017-12-22T09:26:18.752Z,1007.52
2017-12-22T09:28:12.114Z,1007.56
2017-12-22T09:29:12.072Z,1007.59
2017-12-22T09:31:07.944Z,1007.60
2017-12-22T09:32:07.907Z,1007.60
2017-12-22T09:34:03.757Z,1007.56
2017-12-22T09:35:03.716Z,1007.60
2017-12-22T09:36:57.086Z,1007.61
2017-12-22T09:37:57.037Z,1007.60
2017-12-22T09:39:50.404Z,1007.59
2017-12-22T09:40:50.360Z,1007.59
2017-12-22T09:42:43.729Z,1007.53
2017-12-22T09:43:43.680Z,1007.50
2017-12-22T09:45:37.031Z,1007.48
2017-12-22T09:46:36.994Z,1007.42
2017-12-22T09:48:30.351Z,1007.41
2017-12-22T09:49:30.310Z,1007.39
2017-12-22T09:51:23.675Z,1007.39
2017-12-22T09:52:23.630Z,1007.43
2017-12-22T09:54:16.984Z,1007.41
2017-12-22T09:55:16.978Z,1007.40
2017-12-22T09:57:11.173Z,1007.44
2017-12-22T09:58:11.120Z,1007.41
2017-12-22T10:00:04.519Z,1007.40
2017-12-22T10:01:04.440Z,1007.41
2017-12-22T10:03:00.307Z,1007.43
2017-12-22T10:04:00.264Z,1007.44
2017-12-22T10:05:56.142Z,1007.38
2017-12-22T10:06:56.097Z,1007.40
2017-12-22T10:08:49.458Z,1007.37
2017-12-22T10:09:49.421Z,1007.41
2017-12-22T10:11:42.766Z,1007.36
2017-12-22T10:12:42.728Z,1007.34
2017-12-22T10:14:36.086Z,1007.28
2017-12-22T10:15:36.053Z,1007.30
2017-12-22T10:17:31.994Z,1007.25
2017-12-22T10:18:31.911Z,1007.25
2017-12-22T10:20:25.278Z,1007.25
2017-12-22T10:21:25.245Z,1007.24
2017-12-22T10:23:18.600Z,1007.21
2017-12-22T10:24:18.559Z,1007.20
2017-12-22T10:26:14.450Z,1007.18
2017-12-22T10:27:14.389Z,1007.16
2017-12-22T10:29:07.747Z,1007.23
2017-12-22T10:30:07.699Z,1007.22
2017-12-22T10:32:01.061Z,1007.19
2017-12-22T10:33:01.020Z,1007.20
2017-12-22T10:34:56.891Z,1007.14
2017-12-22T10:35:56.848Z,1007.13
2017-12-22T10:37:51.205Z,1007.17
2017-12-22T10:38:51.185Z,1007.17
2017-12-22T10:40:44.519Z,1007.14
2017-12-22T10:41:44.484Z,1007.12
2017-12-22T10:43:40.334Z,1007.08
2017-12-22T10:44:40.297Z,1007.08
2017-12-22T10:46:33.677Z,1007.12
2017-12-22T10:47:33.618Z,1007.09
2017-12-22T10:49:26.981Z,1007.22
2017-12-22T10:50:26.951Z,1007.24
2017-12-22T10:52:22.809Z,1007.22
2017-12-22T10:53:22.768Z,1007.16
2017-12-22T10:55:18.634Z,1007.17
2017-12-22T10:56:18.599Z,1007.17
2017-12-22T10:58:11.986Z,1007.19
2017-12-22T10:59:11.937Z,1007.13
2017-12-22T11:01:05.298Z,1007.14
2017-12-22T11:02:05.248Z,1007.14
2017-12-22T11:03:58.609Z,1007.04
2017-12-22T11:04:58.567Z,1007.02
2017-12-22T11:06:54.427Z,1006.99
2017-12-22T11:07:54.381Z,1006.93
2017-12-22T11:09:50.550Z,1006.94
2017-12-22T11:10:50.202Z,1006.99
2017-12-22T11:12:43.563Z,1007.00
2017-12-22T11:13:43.524Z,1007.04
2017-12-22T11:15:36.877Z,1006.96
2017-12-22T11:16:36.837Z,1006.92
2017-12-22T11:18:32.721Z,1006.88
2017-12-22T11:19:32.664Z,1006.89
2017-12-22T11:21:26.034Z,1006.82
2017-12-22T11:22:25.990Z,1006.82
2017-12-22T11:24:19.343Z,1006.90
2017-12-22T11:25:19.303Z,1006.84
2017-12-22T11:27:15.208Z,1006.85
2017-12-22T11:28:15.128Z,1006.85
2017-12-22T11:30:11.020Z,1006.80
2017-12-22T11:31:10.969Z,1006.82
2017-12-22T11:33:06.824Z,1006.81
2017-12-22T11:34:06.791Z,1006.80
2017-12-22T11:36:02.663Z,1006.80
2017-12-22T11:37:02.599Z,1006.79
2017-12-22T11:38:58.475Z,1006.75
2017-12-22T11:39:58.436Z,1006.79
2017-12-22T11:41:51.795Z,1006.79
2017-12-22T11:42:51.758Z,1006.81
2017-12-22T11:44:45.133Z,1006.83
2017-12-22T11:45:45.068Z,1006.86
2017-12-22T11:47:38.435Z,1006.91
2017-12-22T11:48:38.388Z,1006.87
2017-12-22T11:50:31.748Z,1006.82
2017-12-22T11:51:31.708Z,1006.80
2017-12-22T11:53:25.933Z,1006.82
2017-12-22T11:54:25.902Z,1006.82
2017-12-22T11:56:20.159Z,1006.84
2017-12-22T11:57:20.142Z,1006.83
2017-12-22T11:59:13.481Z,1006.83
2017-12-22T12:00:13.450Z,1006.87
2017-12-22T12:02:06.795Z,1006.84
2017-12-22T12:03:06.756Z,1006.78
2017-12-22T12:05:02.624Z,1006.73
2017-12-22T12:06:02.588Z,1006.71
2017-12-22T12:07:55.958Z,1006.70
2017-12-22T12:08:55.914Z,1006.71
2017-12-22T12:10:49.283Z,1006.74
2017-12-22T12:11:49.284Z,1006.79
2017-12-22T12:13:42.608Z,1006.85
2017-12-22T12:14:42.563Z,1006.84
2017-12-22T12:16:35.932Z,1006.70
2017-12-22T12:17:35.891Z,1006.65
2017-12-22T12:19:30.121Z,1006.57
2017-12-22T12:20:30.068Z,1006.63
2017-12-22T12:22:23.423Z,1006.65
2017-12-22T12:23:23.384Z,1006.63
2017-12-22T12:25:16.748Z,1006.60
2017-12-22T12:26:16.705Z,1006.60
2017-12-22T12:28:10.062Z,1006.62
2017-12-22T12:29:10.025Z,1006.64
2017-12-22T12:31:05.874Z,1006.72
2017-12-22T12:32:05.835Z,1006.71
2017-12-22T12:34:01.724Z,1006.72
2017-12-22T12:35:01.663Z,1006.76
2017-12-22T12:36:55.020Z,1006.77
2017-12-22T12:37:54.987Z,1006.81
2017-12-22T12:39:49.159Z,1006.76
2017-12-22T12:40:49.124Z,1006.76
2017-12-22T12:42:42.507Z,1006.76
2017-12-22T12:43:42.457Z,1006.75
2017-12-22T12:45:35.816Z,1006.75
2017-12-22T12:46:35.769Z,1006.79
2017-12-22T12:48:29.131Z,1006.75
2017-12-22T12:49:29.095Z,1006.75
2017-12-22T12:51:24.963Z,1006.74
2017-12-22T12:52:24.922Z,1006.77
2017-12-22T12:54:18.288Z,1006.81
2017-12-22T12:55:18.248Z,1006.77
2017-12-22T12:57:12.408Z,1006.77
2017-12-22T12:58:12.408Z,1006.79
2017-12-22T13:00:05.722Z,1006.74
2017-12-22T13:01:05.680Z,1006.75
2017-12-22T13:03:01.563Z,1006.71
2017-12-22T13:04:01.507Z,1006.67
2017-12-22T13:05:57.383Z,1006.66
2017-12-22T13:06:57.336Z,1006.68
2017-12-22T13:08:50.698Z,1006.75
2017-12-22T13:09:50.657Z,1006.74
2017-12-22T13:11:44.844Z,1006.74
2017-12-22T13:12:44.803Z,1006.69
2017-12-22T13:14:40.685Z,1006.71
2017-12-22T13:15:40.617Z,1006.70
2017-12-22T13:17:36.513Z,1006.73
2017-12-22T13:18:36.457Z,1006.73
2017-12-22T13:20:29.828Z,1006.71
2017-12-22T13:21:29.789Z,1006.72
2017-12-22T13:23:23.150Z,1006.82
2017-12-22T13:24:23.108Z,1006.85
2017-12-22T13:30:53.662Z,1006.76
2017-12-22T13:31:53.588Z,1006.72
2017-12-22T13:33:49.655Z,1006.73
2017-12-22T13:34:49.410Z,1006.70
2017-12-22T13:36:42.770Z,1006.76
2017-12-22T13:37:42.730Z,1006.70
2017-12-22T13:39:36.098Z,1006.74
2017-12-22T13:40:36.048Z,1006.74
2017-12-22T13:42:28.916Z,1006.70
2017-12-22T13:43:28.869Z,1006.70
2017-12-22T13:45:24.738Z,1006.74
2017-12-22T13:46:24.693Z,1006.74
2017-12-22T13:48:20.573Z,1006.72
2017-12-22T13:49:20.540Z,1006.73
2017-12-22T13:51:13.869Z,1006.77
2017-12-22T13:52:13.826Z,1006.75
2017-12-22T13:54:09.697Z,1006.69
2017-12-22T13:55:09.654Z,1006.69
2017-12-22T13:57:03.019Z,1006.72
2017-12-22T13:58:02.979Z,1006.64
2017-12-22T13:59:56.345Z,1006.66
2017-12-22T14:00:56.300Z,1006.68
2017-12-22T14:02:50.472Z,1006.69
2017-12-22T14:03:50.435Z,1006.68
2017-12-22T14:05:46.304Z,1006.65
2017-12-22T14:06:46.249Z,1006.66
2017-12-22T14:08:39.626Z,1006.73
2017-12-22T14:09:39.583Z,1006.75
2017-12-22T14:11:33.800Z,1006.69
2017-12-22T14:12:33.778Z,1006.74
2017-12-22T14:14:27.120Z,1006.69
2017-12-22T14:15:27.073Z,1006.75
2017-12-22T14:17:22.946Z,1006.71
2017-12-22T14:18:22.900Z,1006.70
2017-12-22T14:20:18.799Z,1006.72
2017-12-22T14:21:18.753Z,1006.72
2017-12-22T14:23:14.636Z,1006.67
2017-12-22T14:24:14.564Z,1006.70
2017-12-22T14:26:07.915Z,1006.70
2017-12-22T14:27:07.879Z,1006.70
2017-12-22T14:29:01.250Z,1006.71
2017-12-22T14:30:01.198Z,1006.75
2017-12-22T14:31:54.555Z,1006.72
2017-12-22T14:32:54.520Z,1006.69
2017-12-22T14:34:50.366Z,1006.63
2017-12-22T14:35:50.330Z,1006.65
2017-12-22T14:37:46.202Z,1006.66
2017-12-22T14:38:46.159Z,1006.68
2017-12-22T14:40:39.575Z,1006.72
2017-12-22T14:41:39.481Z,1006.71
2017-12-22T14:43:32.842Z,1006.66
2017-12-22T14:44:32.841Z,1006.70
2017-12-22T14:46:26.150Z,1006.72
2017-12-22T14:47:26.109Z,1006.78
2017-12-22T14:49:19.468Z,1006.80
2017-12-22T14:50:19.440Z,1006.77
2017-12-22T14:52:15.284Z,1006.84
2017-12-22T14:53:15.244Z,1006.83
2017-12-22T14:55:08.622Z,1006.83
2017-12-22T14:56:08.573Z,1006.86
2017-12-22T14:58:02.820Z,1006.84
2017-12-22T14:59:02.786Z,1006.83
2017-12-22T15:00:56.170Z,1006.82
2017-12-22T15:01:56.108Z,1006.81
2017-12-22T15:03:49.474Z,1006.80
2017-12-22T15:04:49.476Z,1006.75
2017-12-22T15:06:45.294Z,1006.76
2017-12-22T15:07:45.256Z,1006.75
2017-12-22T15:09:38.643Z,1006.79
2017-12-22T15:10:38.583Z,1006.79
2017-12-22T15:12:31.934Z,1006.87
2017-12-22T15:13:31.897Z,1006.89
2017-12-22T15:15:27.836Z,1006.89
2017-12-22T15:16:27.724Z,1006.92
2017-12-22T15:18:23.594Z,1006.94
2017-12-22T15:19:23.553Z,1006.90
2017-12-22T15:21:19.415Z,1006.91
2017-12-22T15:22:19.370Z,1006.87
2017-12-22T15:24:15.232Z,1006.87
2017-12-22T15:25:15.189Z,1006.88
2017-12-22T15:27:11.063Z,1006.88
2017-12-22T15:28:11.014Z,1006.85
2017-12-22T15:30:06.885Z,1006.90
2017-12-22T15:31:06.847Z,1006.95
2017-12-22T15:33:02.713Z,1006.99
2017-12-22T15:34:02.662Z,1007.04
2017-12-22T15:35:58.525Z,1007.04
2017-12-22T15:36:58.488Z,1007.08
2017-12-22T15:38:54.350Z,1007.18
2017-12-22T15:39:54.307Z,1007.19
2017-12-22T15:41:47.720Z,1007.18
2017-12-22T15:42:47.675Z,1007.20
2017-12-22T15:44:41.033Z,1007.20
2017-12-22T15:45:40.995Z,1007.25
2017-12-22T15:47:34.359Z,1007.24
2017-12-22T15:48:34.325Z,1007.27
2017-12-22T15:50:27.680Z,1007.31
2017-12-22T15:51:27.645Z,1007.28
2017-12-22T15:53:21.010Z,1007.28
2017-12-22T15:54:20.957Z,1007.24
2017-12-22T15:56:14.336Z,1007.26
2017-12-22T15:57:14.333Z,1007.23
2017-12-22T15:59:07.658Z,1007.20
2017-12-22T16:00:07.615Z,1007.19
2017-12-22T16:02:00.973Z,1007.19
2017-12-22T16:03:00.927Z,1007.20
2017-12-22T16:04:54.284Z,1007.22
2017-12-22T16:05:54.243Z,1007.23
2017-12-22T16:07:50.141Z,1007.20
2017-12-22T16:08:50.111Z,1007.23
2017-12-22T16:10:43.458Z,1007.24
2017-12-22T16:11:43.412Z,1007.24
2017-12-22T16:13:36.797Z,1007.26
2017-12-22T16:14:36.772Z,1007.27
2017-12-22T16:16:30.124Z,1007.28
2017-12-22T16:17:30.081Z,1007.26
2017-12-22T16:19:26.001Z,1007.33
2017-12-22T16:20:25.922Z,1007.33
2017-12-22T16:22:19.276Z,1007.37
2017-12-22T16:23:19.228Z,1007.38
2017-12-22T16:25:15.109Z,1007.34
2017-12-22T16:26:15.067Z,1007.33
2017-12-22T16:28:10.968Z,1007.35
2017-12-22T16:29:10.899Z,1007.31
2017-12-22T16:31:06.784Z,1007.30
2017-12-22T16:32:06.729Z,1007.33
2017-12-22T16:34:00.079Z,1007.30
2017-12-22T16:35:00.041Z,1007.27
2017-12-22T16:36:53.417Z,1007.30
2017-12-22T16:37:53.371Z,1007.35
2017-12-22T16:39:46.738Z,1007.36
2017-12-22T16:40:46.687Z,1007.36
2017-12-22T16:42:40.051Z,1007.36
2017-12-22T16:43:40.021Z,1007.39
2017-12-22T16:45:35.880Z,1007.42
2017-12-22T16:46:35.831Z,1007.49
2017-12-22T16:48:29.212Z,1007.48
2017-12-22T16:49:29.155Z,1007.48
2017-12-22T16:51:25.025Z,1007.46
2017-12-22T16:52:25.025Z,1007.39
2017-12-22T16:54:20.859Z,1007.47
2017-12-22T16:55:20.817Z,1007.51
2017-12-22T16:57:14.183Z,1007.56
2017-12-22T16:58:14.129Z,1007.60
2017-12-22T17:00:07.487Z,1007.60
2017-12-22T17:01:07.448Z,1007.59
2017-12-22T17:03:00.829Z,1007.61
2017-12-22T17:04:00.780Z,1007.63
2017-12-22T17:05:54.155Z,1007.61
2017-12-22T17:06:54.118Z,1007.63
2017-12-22T17:08:47.509Z,1007.67
2017-12-22T17:09:47.470Z,1007.67
2017-12-22T17:11:43.331Z,1007.68
2017-12-22T17:12:43.288Z,1007.67
2017-12-22T17:14:36.651Z,1007.66
2017-12-22T17:15:36.606Z,1007.75
2017-12-22T17:17:30.006Z,1007.76
2017-12-22T17:18:29.944Z,1007.78
2017-12-22T17:20:23.293Z,1007.85
2017-12-22T17:21:23.254Z,1007.88
2017-12-22T17:23:16.629Z,1007.89
2017-12-22T17:24:16.594Z,1007.91
2017-12-22T17:26:12.453Z,1007.93
2017-12-22T17:27:12.415Z,1007.91
2017-12-22T17:29:05.825Z,1007.96
2017-12-22T17:30:05.744Z,1007.94
2017-12-22T17:31:59.236Z,1008.02
2017-12-22T17:32:59.043Z,1008.05
2017-12-22T17:34:52.406Z,1008.04
2017-12-22T17:35:52.362Z,1008.09
2017-12-22T17:37:45.735Z,1008.14